sensor_id;sensor_type;location;lat;lon;timestamp;pressure;altitude;pressure_sealevel;temperature;humidity
64967;BME280;51710;38.732;-121.358;2023-04-28T00:02:18;100530.75;;;32.25;27.79
64967;BME280;51710;38.732;-121.358;2023-04-28T00:04:44;100524.19;;;32.21;27.55
64967;BME280;51710;38.732;-121.358;2023-04-28T00:07:11;100525.13;;;32.17;27.45
64967;BME280;51710;38.732;-121.358;2023-04-28T00:09:38;100526.53;;;32.14;27.94
64967;BME280;51710;38.732;-121.358;2023-04-28T00:12:04;100517.22;;;32.10;28.06
64967;BME280;51710;38.732;-121.358;2023-04-28T00:14:31;100513.16;;;32.08;27.58
64967;BME280;51710;38.732;-121.358;2023-04-28T00:16:57;100517.03;;;32.07;28.17
64967;BME280;51710;38.732;-121.358;2023-04-28T00:19:23;100509.06;;;32.05;28.12
64967;BME280;51710;38.732;-121.358;2023-04-28T00:21:50;100509.69;;;32.02;28.74
64967;BME280;51710;38.732;-121.358;2023-04-28T00:24:16;100511.91;;;32.00;27.26
64967;BME280;51710;38.732;-121.358;2023-04-28T00:26:42;100506.50;;;31.95;27.81
64967;BME280;51710;38.732;-121.358;2023-04-28T00:29:09;100503.31;;;31.88;26.97
64967;BME280;51710;38.732;-121.358;2023-04-28T00:31:35;100500.03;;;31.86;27.79
64967;BME280;51710;38.732;-121.358;2023-04-28T00:34:02;100498.09;;;31.86;28.02
64967;BME280;51710;38.732;-121.358;2023-04-28T00:36:28;100502.56;;;31.82;28.21
64967;BME280;51710;38.732;-121.358;2023-04-28T00:38:57;100494.59;;;31.81;28.34
64967;BME280;51710;38.732;-121.358;2023-04-28T00:41:24;100492.47;;;31.78;28.51
64967;BME280;51710;38.732;-121.358;2023-04-28T00:43:50;100495.84;;;31.75;28.55
64967;BME280;51710;38.732;-121.358;2023-04-28T00:46:21;100499.38;;;31.75;27.73
64967;BME280;51710;38.732;-121.358;2023-04-28T00:48:49;100493.06;;;31.75;28.99
64967;BME280;51710;38.732;-121.358;2023-04-28T00:51:16;100492.84;;;31.71;29.82
64967;BME280;51710;38.732;-121.358;2023-04-28T00:53:43;100490.16;;;31.66;29.08
64967;BME280;51710;38.732;-121.358;2023-04-28T00:56:10;100489.94;;;31.63;28.42
64967;BME280;51710;38.732;-121.358;2023-04-28T00:58:37;100493.31;;;31.60;29.44
64967;BME280;51710;38.732;-121.358;2023-04-28T01:01:04;100494.97;;;31.61;29.19
64967;BME280;51710;38.732;-121.358;2023-04-28T01:03:34;100492.81;;;31.58;29.35
64967;BME280;51710;38.732;-121.358;2023-04-28T01:06:06;100497.50;;;31.57;29.63
64967;BME280;51710;38.732;-121.358;2023-04-28T01:08:35;100490.97;;;31.53;30.30
64967;BME280;51710;38.732;-121.358;2023-04-28T01:11:01;100489.09;;;31.49;30.62
64967;BME280;51710;38.732;-121.358;2023-04-28T01:13:28;100486.44;;;31.44;30.41
64967;BME280;51710;38.732;-121.358;2023-04-28T01:15:55;100491.72;;;31.40;30.82
64967;BME280;51710;38.732;-121.358;2023-04-28T01:18:22;100489.88;;;31.36;30.71
64967;BME280;51710;38.732;-121.358;2023-04-28T01:20:48;100492.09;;;31.34;30.69
64967;BME280;51710;38.732;-121.358;2023-04-28T01:23:15;100490.44;;;31.33;30.57
64967;BME280;51710;38.732;-121.358;2023-04-28T01:25:43;100490.75;;;31.31;31.23
64967;BME280;51710;38.732;-121.358;2023-04-28T01:28:10;100478.38;;;31.29;31.78
64967;BME280;51710;38.732;-121.358;2023-04-28T01:30:36;100488.34;;;31.25;32.01
64967;BME280;51710;38.732;-121.358;2023-04-28T01:33:02;100484.06;;;31.19;31.91
64967;BME280;51710;38.732;-121.358;2023-04-28T01:35:29;100479.91;;;31.40;32.18
64967;BME280;51710;38.732;-121.358;2023-04-28T01:37:55;100473.13;;;31.96;32.05
64967;BME280;51710;38.732;-121.358;2023-04-28T01:40:22;100481.53;;;32.46;30.90
64967;BME280;51710;38.732;-121.358;2023-04-28T01:42:48;100475.28;;;32.67;30.69
64967;BME280;51710;38.732;-121.358;2023-04-28T01:45:14;100479.00;;;32.49;30.36
64967;BME280;51710;38.732;-121.358;2023-04-28T01:47:40;100474.66;;;32.16;30.48
64967;BME280;51710;38.732;-121.358;2023-04-28T01:50:07;100473.06;;;31.83;31.27
64967;BME280;51710;38.732;-121.358;2023-04-28T01:52:33;100466.38;;;31.57;31.43
64967;BME280;51710;38.732;-121.358;2023-04-28T01:55:00;100481.09;;;31.34;31.63
64967;BME280;51710;38.732;-121.358;2023-04-28T01:57:27;100472.00;;;31.15;31.87
64967;BME280;51710;38.732;-121.358;2023-04-28T01:59:54;100463.47;;;30.98;32.12
64967;BME280;51710;38.732;-121.358;2023-04-28T02:02:20;100466.94;;;30.84;32.72
64967;BME280;51710;38.732;-121.358;2023-04-28T02:04:46;100476.44;;;30.73;32.41
64967;BME280;51710;38.732;-121.358;2023-04-28T02:07:12;100480.38;;;30.67;32.54
64967;BME280;51710;38.732;-121.358;2023-04-28T02:09:39;100472.56;;;30.56;32.99
64967;BME280;51710;38.732;-121.358;2023-04-28T02:12:05;100467.47;;;30.44;33.39
64967;BME280;51710;38.732;-121.358;2023-04-28T02:14:31;100472.88;;;30.31;33.07
64967;BME280;51710;38.732;-121.358;2023-04-28T02:16:58;100469.16;;;30.17;33.36
64967;BME280;51710;38.732;-121.358;2023-04-28T02:19:24;100467.91;;;30.04;33.61
64967;BME280;51710;38.732;-121.358;2023-04-28T02:21:50;100474.66;;;29.93;33.28
64967;BME280;51710;38.732;-121.358;2023-04-28T02:24:17;100472.81;;;29.83;33.90
64967;BME280;51710;38.732;-121.358;2023-04-28T02:26:43;100474.53;;;29.74;34.00
64967;BME280;51710;38.732;-121.358;2023-04-28T02:29:09;100469.13;;;29.64;34.04
64967;BME280;51710;38.732;-121.358;2023-04-28T02:31:35;100468.94;;;29.56;34.32
64967;BME280;51710;38.732;-121.358;2023-04-28T02:34:05;100470.94;;;29.45;34.53
64967;BME280;51710;38.732;-121.358;2023-04-28T02:36:31;100466.94;;;29.33;34.60
64967;BME280;51710;38.732;-121.358;2023-04-28T02:38:58;100471.16;;;29.20;34.58
64967;BME280;51710;38.732;-121.358;2023-04-28T02:41:24;100465.44;;;29.07;34.88
64967;BME280;51710;38.732;-121.358;2023-04-28T02:43:51;100472.66;;;28.93;35.21
64967;BME280;51710;38.732;-121.358;2023-04-28T02:46:17;100474.94;;;28.80;35.86
64967;BME280;51710;38.732;-121.358;2023-04-28T02:48:43;100476.41;;;28.68;35.99
64967;BME280;51710;38.732;-121.358;2023-04-28T02:51:09;100472.06;;;28.57;35.95
64967;BME280;51710;38.732;-121.358;2023-04-28T02:53:36;100474.56;;;28.43;35.80
64967;BME280;51710;38.732;-121.358;2023-04-28T02:56:02;100468.88;;;28.25;36.09
64967;BME280;51710;38.732;-121.358;2023-04-28T02:58:29;100468.94;;;28.05;36.79
64967;BME280;51710;38.732;-121.358;2023-04-28T03:00:55;100467.59;;;27.87;37.46
64967;BME280;51710;38.732;-121.358;2023-04-28T03:03:21;100474.72;;;27.68;37.62
64967;BME280;51710;38.732;-121.358;2023-04-28T03:05:48;100476.38;;;27.54;38.13
64967;BME280;51710;38.732;-121.358;2023-04-28T03:08:14;100478.03;;;27.40;38.90
64967;BME280;51710;38.732;-121.358;2023-04-28T03:10:40;100480.19;;;27.23;38.60
64967;BME280;51710;38.732;-121.358;2023-04-28T03:13:06;100477.16;;;27.09;38.51
64967;BME280;51710;38.732;-121.358;2023-04-28T03:15:33;100482.03;;;26.97;39.09
64967;BME280;51710;38.732;-121.358;2023-04-28T03:17:59;100482.56;;;26.84;38.95
64967;BME280;51710;38.732;-121.358;2023-04-28T03:20:25;100481.72;;;26.69;38.99
64967;BME280;51710;38.732;-121.358;2023-04-28T03:22:52;100489.31;;;26.61;38.82
64967;BME280;51710;38.732;-121.358;2023-04-28T03:25:18;100486.53;;;26.51;39.40
64967;BME280;51710;38.732;-121.358;2023-04-28T03:27:44;100481.56;;;26.43;39.47
64967;BME280;51710;38.732;-121.358;2023-04-28T03:30:11;100489.16;;;26.31;39.87
64967;BME280;51710;38.732;-121.358;2023-04-28T03:32:40;100488.59;;;26.24;40.31
64967;BME280;51710;38.732;-121.358;2023-04-28T03:35:06;100496.47;;;26.16;40.86
64967;BME280;51710;38.732;-121.358;2023-04-28T03:37:32;100493.41;;;26.07;41.87
64967;BME280;51710;38.732;-121.358;2023-04-28T03:39:58;100493.34;;;25.97;42.07
64967;BME280;51710;38.732;-121.358;2023-04-28T03:42:25;100494.59;;;25.85;42.52
64967;BME280;51710;38.732;-121.358;2023-04-28T03:44:51;100502.16;;;25.73;43.04
64967;BME280;51710;38.732;-121.358;2023-04-28T03:47:18;100501.25;;;25.62;43.82
64967;BME280;51710;38.732;-121.358;2023-04-28T03:49:44;100507.22;;;25.54;44.31
64967;BME280;51710;38.732;-121.358;2023-04-28T03:52:11;100507.66;;;25.46;44.29
64967;BME280;51710;38.732;-121.358;2023-04-28T03:54:37;100507.81;;;25.34;43.15
64967;BME280;51710;38.732;-121.358;2023-04-28T03:57:03;100515.09;;;25.24;43.37
64967;BME280;51710;38.732;-121.358;2023-04-28T03:59:29;100523.63;;;25.06;45.25
64967;BME280;51710;38.732;-121.358;2023-04-28T04:01:56;100522.31;;;24.87;46.37
64967;BME280;51710;38.732;-121.358;2023-04-28T04:04:25;100525.13;;;24.70;46.32
64967;BME280;51710;38.732;-121.358;2023-04-28T04:06:51;100533.97;;;24.61;46.02
64967;BME280;51710;38.732;-121.358;2023-04-28T04:09:17;100531.22;;;24.61;45.74
64967;BME280;51710;38.732;-121.358;2023-04-28T04:11:44;100532.91;;;24.62;46.37
64967;BME280;51710;38.732;-121.358;2023-04-28T04:14:10;100536.63;;;24.56;46.47
64967;BME280;51710;38.732;-121.358;2023-04-28T04:16:36;100539.34;;;24.56;46.52
64967;BME280;51710;38.732;-121.358;2023-04-28T04:19:02;100542.84;;;24.51;46.91
64967;BME280;51710;38.732;-121.358;2023-04-28T04:21:29;100535.72;;;24.50;46.92
64967;BME280;51710;38.732;-121.358;2023-04-28T04:23:56;100542.78;;;24.46;47.30
64967;BME280;51710;38.732;-121.358;2023-04-28T04:26:22;100547.91;;;24.42;47.00
64967;BME280;51710;38.732;-121.358;2023-04-28T04:28:49;100544.09;;;24.43;47.08
64967;BME280;51710;38.732;-121.358;2023-04-28T04:31:15;100539.72;;;24.42;46.87
64967;BME280;51710;38.732;-121.358;2023-04-28T04:33:44;100549.47;;;24.38;47.94
64967;BME280;51710;38.732;-121.358;2023-04-28T04:36:10;100554.28;;;24.31;48.03
64967;BME280;51710;38.732;-121.358;2023-04-28T04:38:36;100556.94;;;24.26;48.50
64967;BME280;51710;38.732;-121.358;2023-04-28T04:41:03;100560.63;;;24.20;48.72
64967;BME280;51710;38.732;-121.358;2023-04-28T04:43:29;100557.25;;;24.13;48.88
64967;BME280;51710;38.732;-121.358;2023-04-28T04:45:55;100564.78;;;24.06;49.31
64967;BME280;51710;38.732;-121.358;2023-04-28T04:48:21;100558.56;;;23.94;50.05
64967;BME280;51710;38.732;-121.358;2023-04-28T04:50:48;100559.41;;;23.78;50.36
64967;BME280;51710;38.732;-121.358;2023-04-28T04:53:14;100570.88;;;23.64;50.70
64967;BME280;51710;38.732;-121.358;2023-04-28T04:55:41;100567.78;;;23.43;52.12
64967;BME280;51710;38.732;-121.358;2023-04-28T04:58:07;100575.78;;;23.22;52.60
64967;BME280;51710;38.732;-121.358;2023-04-28T05:00:33;100573.84;;;23.06;52.77
64967;BME280;51710;38.732;-121.358;2023-04-28T05:03:00;100569.75;;;22.92;53.29
64967;BME280;51710;38.732;-121.358;2023-04-28T05:05:28;100572.97;;;22.77;53.55
64967;BME280;51710;38.732;-121.358;2023-04-28T05:07:55;100581.75;;;22.68;53.80
64967;BME280;51710;38.732;-121.358;2023-04-28T05:10:21;100582.59;;;22.57;54.41
64967;BME280;51710;38.732;-121.358;2023-04-28T05:12:47;100580.69;;;22.46;54.80
64967;BME280;51710;38.732;-121.358;2023-04-28T05:15:14;100583.88;;;22.43;54.72
64967;BME280;51710;38.732;-121.358;2023-04-28T05:17:40;100585.44;;;22.39;54.63
64967;BME280;51710;38.732;-121.358;2023-04-28T05:20:09;100579.19;;;22.38;54.75
64967;BME280;51710;38.732;-121.358;2023-04-28T05:22:35;100587.06;;;22.40;55.07
64967;BME280;51710;38.732;-121.358;2023-04-28T05:25:01;100587.06;;;22.40;55.13
64967;BME280;51710;38.732;-121.358;2023-04-28T05:27:27;100584.84;;;22.37;55.66
64967;BME280;51710;38.732;-121.358;2023-04-28T05:29:54;100583.06;;;22.30;55.94
64967;BME280;51710;38.732;-121.358;2023-04-28T05:32:20;100583.56;;;22.27;55.63
64967;BME280;51710;38.732;-121.358;2023-04-28T05:34:46;100582.13;;;22.25;55.57
64967;BME280;51710;38.732;-121.358;2023-04-28T05:37:13;100582.84;;;22.20;56.11
64967;BME280;51710;38.732;-121.358;2023-04-28T05:39:39;100588.84;;;22.11;56.13
64967;BME280;51710;38.732;-121.358;2023-04-28T05:42:05;100587.78;;;22.00;56.52
64967;BME280;51710;38.732;-121.358;2023-04-28T05:44:31;100591.31;;;21.89;56.89
64967;BME280;51710;38.732;-121.358;2023-04-28T05:46:58;100580.19;;;21.79;57.06
64967;BME280;51710;38.732;-121.358;2023-04-28T05:49:24;100580.53;;;21.71;57.26
64967;BME280;51710;38.732;-121.358;2023-04-28T05:51:50;100587.47;;;21.67;57.71
64967;BME280;51710;38.732;-121.358;2023-04-28T05:54:17;100573.53;;;21.64;57.99
64967;BME280;51710;38.732;-121.358;2023-04-28T05:56:43;100576.72;;;21.61;57.96
64967;BME280;51710;38.732;-121.358;2023-04-28T05:59:09;100575.75;;;21.55;58.44
64967;BME280;51710;38.732;-121.358;2023-04-28T06:01:35;100580.47;;;21.48;58.82
64967;BME280;51710;38.732;-121.358;2023-04-28T06:04:03;100583.75;;;21.39;59.31
64967;BME280;51710;38.732;-121.358;2023-04-28T06:06:29;100581.59;;;21.29;59.40
64967;BME280;51710;38.732;-121.358;2023-04-28T06:08:56;100579.56;;;21.24;59.61
64967;BME280;51710;38.732;-121.358;2023-04-28T06:11:23;100575.44;;;21.22;59.73
64967;BME280;51710;38.732;-121.358;2023-04-28T06:13:49;100569.78;;;21.23;59.64
64967;BME280;51710;38.732;-121.358;2023-04-28T06:16:16;100580.25;;;21.20;59.98
64967;BME280;51710;38.732;-121.358;2023-04-28T06:18:43;100577.41;;;21.15;60.17
64967;BME280;51710;38.732;-121.358;2023-04-28T06:21:10;100576.59;;;21.14;60.16
64967;BME280;51710;38.732;-121.358;2023-04-28T06:23:36;100577.41;;;21.15;59.95
64967;BME280;51710;38.732;-121.358;2023-04-28T06:26:03;100578.59;;;21.19;59.71
64967;BME280;51710;38.732;-121.358;2023-04-28T06:28:29;100576.88;;;21.24;59.29
64967;BME280;51710;38.732;-121.358;2023-04-28T06:30:55;100581.13;;;21.32;58.78
64967;BME280;51710;38.732;-121.358;2023-04-28T06:33:22;100581.88;;;21.39;58.72
64967;BME280;51710;38.732;-121.358;2023-04-28T06:35:48;100583.63;;;21.45;58.61
64967;BME280;51710;38.732;-121.358;2023-04-28T06:38:14;100580.34;;;21.43;58.98
64967;BME280;51710;38.732;-121.358;2023-04-28T06:40:41;100588.91;;;21.29;59.55
64967;BME280;51710;38.732;-121.358;2023-04-28T06:43:07;100593.28;;;21.11;60.11
64967;BME280;51710;38.732;-121.358;2023-04-28T06:45:33;100592.16;;;21.01;60.30
64967;BME280;51710;38.732;-121.358;2023-04-28T06:47:59;100591.13;;;21.02;60.21
64967;BME280;51710;38.732;-121.358;2023-04-28T06:50:26;100588.69;;;21.12;59.67
64967;BME280;51710;38.732;-121.358;2023-04-28T06:52:52;100587.56;;;21.19;59.92
64967;BME280;51710;38.732;-121.358;2023-04-28T06:55:18;100588.69;;;21.12;60.01
64967;BME280;51710;38.732;-121.358;2023-04-28T06:57:45;100589.69;;;20.99;59.92
64967;BME280;51710;38.732;-121.358;2023-04-28T07:00:12;100588.06;;;20.98;59.86
64967;BME280;51710;38.732;-121.358;2023-04-28T07:02:38;100593.53;;;21.10;59.68
64967;BME280;51710;38.732;-121.358;2023-04-28T07:05:05;100590.28;;;21.19;59.65
64967;BME280;51710;38.732;-121.358;2023-04-28T07:07:31;100590.19;;;21.26;59.62
64967;BME280;51710;38.732;-121.358;2023-04-28T07:09:57;100593.84;;;21.32;59.40
64967;BME280;51710;38.732;-121.358;2023-04-28T07:12:26;100595.63;;;21.38;59.32
64967;BME280;51710;38.732;-121.358;2023-04-28T07:14:52;100602.00;;;21.43;59.48
64967;BME280;51710;38.732;-121.358;2023-04-28T07:17:18;100602.47;;;21.40;59.43
64967;BME280;51710;38.732;-121.358;2023-04-28T07:19:44;100596.47;;;21.38;59.59
64967;BME280;51710;38.732;-121.358;2023-04-28T07:22:11;100602.47;;;21.40;59.56
64967;BME280;51710;38.732;-121.358;2023-04-28T07:24:37;100603.75;;;21.38;59.63
64967;BME280;51710;38.732;-121.358;2023-04-28T07:27:04;100605.53;;;21.32;60.11
64967;BME280;51710;38.732;-121.358;2023-04-28T07:29:30;100597.56;;;21.19;60.21
64967;BME280;51710;38.732;-121.358;2023-04-28T07:32:02;100602.09;;;21.07;60.46
64967;BME280;51710;38.732;-121.358;2023-04-28T07:34:35;100603.00;;;21.01;60.77
64967;BME280;51710;38.732;-121.358;2023-04-28T07:37:02;100602.56;;;21.04;60.77
64967;BME280;51710;38.732;-121.358;2023-04-28T07:39:30;100600.00;;;21.09;60.77
64967;BME280;51710;38.732;-121.358;2023-04-28T07:41:57;100597.44;;;21.14;60.15
64967;BME280;51710;38.732;-121.358;2023-04-28T07:44:23;100594.84;;;21.19;60.48
64967;BME280;51710;38.732;-121.358;2023-04-28T07:46:50;100597.69;;;21.24;60.33
64967;BME280;51710;38.732;-121.358;2023-04-28T07:49:16;100596.78;;;21.30;60.26
64967;BME280;51710;38.732;-121.358;2023-04-28T07:51:43;100595.25;;;21.34;60.12
64967;BME280;51710;38.732;-121.358;2023-04-28T07:54:09;100600.00;;;21.39;60.03
64967;BME280;51710;38.732;-121.358;2023-04-28T07:56:35;100602.47;;;21.40;59.96
64967;BME280;51710;38.732;-121.358;2023-04-28T07:59:01;100597.91;;;21.41;59.71
64967;BME280;51710;38.732;-121.358;2023-04-28T08:01:28;100598.13;;;21.39;59.71
64967;BME280;51710;38.732;-121.358;2023-04-28T08:03:54;100604.97;;;21.42;59.58
64967;BME280;51710;38.732;-121.358;2023-04-28T08:06:20;100596.59;;;21.43;59.61
64967;BME280;51710;38.732;-121.358;2023-04-28T08:08:47;100608.88;;;21.46;59.34
64967;BME280;51710;38.732;-121.358;2023-04-28T08:11:13;100603.81;;;21.49;59.13
64967;BME280;51710;38.732;-121.358;2023-04-28T08:13:40;100602.28;;;21.53;58.88
64967;BME280;51710;38.732;-121.358;2023-04-28T08:16:06;100603.94;;;21.54;58.38
64967;BME280;51710;38.732;-121.358;2023-04-28T08:18:33;100601.47;;;21.53;57.98
64967;BME280;51710;38.732;-121.358;2023-04-28T08:20:59;100592.38;;;21.47;58.25
64967;BME280;51710;38.732;-121.358;2023-04-28T08:23:25;100597.06;;;21.40;58.42
64967;BME280;51710;38.732;-121.358;2023-04-28T08:25:55;100594.22;;;21.35;58.14
64967;BME280;51710;38.732;-121.358;2023-04-28T08:28:21;100591.97;;;21.32;58.11
64967;BME280;51710;38.732;-121.358;2023-04-28T08:30:48;100585.72;;;21.32;58.07
64967;BME280;51710;38.732;-121.358;2023-04-28T08:33:14;100584.88;;;21.31;57.86
64967;BME280;51710;38.732;-121.358;2023-04-28T08:35:40;100592.41;;;21.29;57.76
64967;BME280;51710;38.732;-121.358;2023-04-28T08:38:06;100587.19;;;21.16;58.63
64967;BME280;51710;38.732;-121.358;2023-04-28T08:40:38;100586.22;;;20.92;59.50
64967;BME280;51710;38.732;-121.358;2023-04-28T08:43:07;100578.94;;;20.75;59.75
64967;BME280;51710;38.732;-121.358;2023-04-28T08:45:42;100587.22;;;20.62;59.88
64967;BME280;51710;38.732;-121.358;2023-04-28T08:48:20;100588.81;;;20.51;60.00
64967;BME280;51710;38.732;-121.358;2023-04-28T08:50:51;100586.31;;;20.50;60.23
64967;BME280;51710;38.732;-121.358;2023-04-28T08:53:24;100591.50;;;20.51;60.12
64967;BME280;51710;38.732;-121.358;2023-04-28T08:55:55;100590.91;;;20.49;60.09
64967;BME280;51710;38.732;-121.358;2023-04-28T08:58:25;100583.00;;;20.48;60.11
64967;BME280;51710;38.732;-121.358;2023-04-28T09:00:53;100591.97;;;20.48;60.02
64967;BME280;51710;38.732;-121.358;2023-04-28T09:03:19;100600.47;;;20.52;59.99
64967;BME280;51710;38.732;-121.358;2023-04-28T09:05:46;100583.16;;;20.53;60.10
64967;BME280;51710;38.732;-121.358;2023-04-28T09:08:12;100587.31;;;20.55;60.06
64967;BME280;51710;38.732;-121.358;2023-04-28T09:10:39;100585.41;;;20.56;59.84
64967;BME280;51710;38.732;-121.358;2023-04-28T09:13:06;100584.16;;;20.58;59.78
64967;BME280;51710;38.732;-121.358;2023-04-28T09:15:37;100589.31;;;20.60;59.50
64967;BME280;51710;38.732;-121.358;2023-04-28T09:18:07;100584.53;;;20.62;59.26
64967;BME280;51710;38.732;-121.358;2023-04-28T09:20:35;100577.00;;;20.64;59.28
64967;BME280;51710;38.732;-121.358;2023-04-28T09:23:21;100575.94;;;20.65;59.26
64967;BME280;51710;38.732;-121.358;2023-04-28T09:26:05;100583.22;;;20.64;59.16
64967;BME280;51710;38.732;-121.358;2023-04-28T09:28:33;100583.91;;;20.60;59.33
64967;BME280;51710;38.732;-121.358;2023-04-28T09:31:01;100575.34;;;20.45;59.61
64967;BME280;51710;38.732;-121.358;2023-04-28T09:33:27;100579.25;;;20.31;60.05
64967;BME280;51710;38.732;-121.358;2023-04-28T09:35:54;100576.03;;;20.15;60.52
64967;BME280;51710;38.732;-121.358;2023-04-28T09:38:22;100580.09;;;20.06;60.54
64967;BME280;51710;38.732;-121.358;2023-04-28T09:40:56;100579.47;;;20.04;60.58
64967;BME280;51710;38.732;-121.358;2023-04-28T09:43:31;100585.03;;;20.09;60.07
64967;BME280;51710;38.732;-121.358;2023-04-28T09:45:59;100587.06;;;20.14;59.95
64967;BME280;51710;38.732;-121.358;2023-04-28T09:48:36;100586.44;;;20.19;59.66
64967;BME280;51710;38.732;-121.358;2023-04-28T09:51:06;100583.28;;;20.22;59.10
64967;BME280;51710;38.732;-121.358;2023-04-28T09:53:33;100582.03;;;20.24;58.99
64967;BME280;51710;38.732;-121.358;2023-04-28T09:56:02;100588.00;;;20.26;58.63
64967;BME280;51710;38.732;-121.358;2023-04-28T09:58:30;100582.19;;;20.29;58.34
64967;BME280;51710;38.732;-121.358;2023-04-28T10:01:00;100584.44;;;20.32;58.43
64967;BME280;51710;38.732;-121.358;2023-04-28T10:03:28;100588.78;;;20.33;57.89
64967;BME280;51710;38.732;-121.358;2023-04-28T10:05:56;100594.66;;;20.30;58.20
64967;BME280;51710;38.732;-121.358;2023-04-28T10:08:24;100592.16;;;20.29;58.61
64967;BME280;51710;38.732;-121.358;2023-04-28T10:10:52;100594.25;;;20.27;58.04
64967;BME280;51710;38.732;-121.358;2023-04-28T10:13:20;100592.16;;;20.29;57.93
64967;BME280;51710;38.732;-121.358;2023-04-28T10:15:47;100604.00;;;20.28;57.73
64967;BME280;51710;38.732;-121.358;2023-04-28T10:18:14;100590.94;;;20.25;57.50
64967;BME280;51710;38.732;-121.358;2023-04-28T10:20:44;100595.56;;;20.24;57.29
64967;BME280;51710;38.732;-121.358;2023-04-28T10:23:59;100600.56;;;20.21;57.14
64967;BME280;51710;38.732;-121.358;2023-04-28T10:27:01;100601.00;;;20.17;56.85
64967;BME280;51710;38.732;-121.358;2023-04-28T10:29:32;100597.66;;;20.15;57.30
64967;BME280;51710;38.732;-121.358;2023-04-28T10:32:15;100597.28;;;20.12;56.84
64967;BME280;51710;38.732;-121.358;2023-04-28T10:34:42;100601.25;;;20.09;56.53
64967;BME280;51710;38.732;-121.358;2023-04-28T10:37:10;100601.91;;;20.05;56.85
64967;BME280;51710;38.732;-121.358;2023-04-28T10:39:40;100606.94;;;20.01;56.82
64967;BME280;51710;38.732;-121.358;2023-04-28T10:42:50;100612.78;;;19.98;56.63
64967;BME280;51710;38.732;-121.358;2023-04-28T10:45:12;100616.56;;;19.97;56.61
64967;BME280;51710;38.732;-121.358;2023-04-28T10:47:59;100610.53;;;19.95;56.45
64967;BME280;51710;38.732;-121.358;2023-04-28T10:50:30;100617.81;;;19.95;56.28
64967;BME280;51710;38.732;-121.358;2023-04-28T10:52:57;100619.72;;;19.94;56.22
64967;BME280;51710;38.732;-121.358;2023-04-28T10:55:33;100617.00;;;19.94;56.47
64967;BME280;51710;38.732;-121.358;2023-04-28T11:00:43;100605.06;;;19.77;56.79
64967;BME280;51710;38.732;-121.358;2023-04-28T11:03:41;100608.13;;;19.56;57.40
64967;BME280;51710;38.732;-121.358;2023-04-28T11:06:28;100607.44;;;19.36;58.02
64967;BME280;51710;38.732;-121.358;2023-04-28T11:14:32;100612.53;;;19.06;58.71
64967;BME280;51710;38.732;-121.358;2023-04-28T11:17:01;100609.41;;;19.09;58.51
64967;BME280;51710;38.732;-121.358;2023-04-28T11:19:40;100604.19;;;19.15;58.28
64967;BME280;51710;38.732;-121.358;2023-04-28T11:24:39;100606.44;;;19.24;57.75
64967;BME280;51710;38.732;-121.358;2023-04-28T11:27:06;100612.88;;;19.23;57.94
64967;BME280;51710;38.732;-121.358;2023-04-28T11:29:35;100608.75;;;19.21;57.99
64967;BME280;51710;38.732;-121.358;2023-04-28T11:32:06;100612.91;;;19.17;58.28
64967;BME280;51710;38.732;-121.358;2023-04-28T11:34:33;100609.81;;;19.13;58.07
64967;BME280;51710;38.732;-121.358;2023-04-28T11:37:00;100605.47;;;19.12;58.37
64967;BME280;51710;38.732;-121.358;2023-04-28T11:39:31;100610.88;;;19.12;58.30
64967;BME280;51710;38.732;-121.358;2023-04-28T11:41:59;100607.53;;;19.10;58.03
64967;BME280;51710;38.732;-121.358;2023-04-28T11:44:29;100614.19;;;19.07;58.25
64967;BME280;51710;38.732;-121.358;2023-04-28T11:46:58;100609.66;;;19.01;58.27
64967;BME280;51710;38.732;-121.358;2023-04-28T11:49:29;100613.00;;;18.97;58.22
64967;BME280;51710;38.732;-121.358;2023-04-28T11:52:07;100610.72;;;18.94;58.32
64967;BME280;51710;38.732;-121.358;2023-04-28T11:54:35;100617.19;;;18.93;58.96
64967;BME280;51710;38.732;-121.358;2023-04-28T11:57:02;100622.59;;;18.93;58.83
64967;BME280;51710;38.732;-121.358;2023-04-28T11:59:35;100617.63;;;18.83;59.22
64967;BME280;51710;38.732;-121.358;2023-04-28T12:02:06;100622.88;;;18.65;59.72
64967;BME280;51710;38.732;-121.358;2023-04-28T12:04:39;100633.53;;;18.41;60.34
64967;BME280;51710;38.732;-121.358;2023-04-28T12:07:14;100623.56;;;18.22;61.20
64967;BME280;51710;38.732;-121.358;2023-04-28T12:09:45;100631.00;;;18.07;61.52
64967;BME280;51710;38.732;-121.358;2023-04-28T12:12:13;100627.28;;;18.01;61.75
64967;BME280;51710;38.732;-121.358;2023-04-28T12:14:58;100629.38;;;18.06;61.50
64967;BME280;51710;38.732;-121.358;2023-04-28T12:17:27;100634.53;;;18.14;61.31
64967;BME280;51710;38.732;-121.358;2023-04-28T12:19:54;100635.56;;;18.19;61.23
64967;BME280;51710;38.732;-121.358;2023-04-28T12:22:21;100636.19;;;18.21;61.10
64967;BME280;51710;38.732;-121.358;2023-04-28T12:25:07;100634.53;;;18.20;61.06
64967;BME280;51710;38.732;-121.358;2023-04-28T12:27:35;100648.41;;;18.24;61.17
64967;BME280;51710;38.732;-121.358;2023-04-28T12:32:46;100653.00;;;18.30;60.92
64967;BME280;51710;38.732;-121.358;2023-04-28T12:35:13;100650.28;;;18.30;60.93
64967;BME280;51710;38.732;-121.358;2023-04-28T12:37:41;100646.75;;;18.29;61.07
64967;BME280;51710;38.732;-121.358;2023-04-28T12:40:08;100649.25;;;18.31;61.01